createdAt,value
2023-01-06T00:00:23.050Z,71.62
2023-01-06T00:02:55.048Z,71.96
2023-01-06T00:05:27.089Z,71.43
2023-01-06T00:07:59.680Z,71.54
2023-01-06T00:10:31.673Z,71.31
2023-01-06T00:13:03.725Z,71.43
2023-01-06T00:15:37.844Z,71.06
2023-01-06T00:18:09.921Z,71.41
2023-01-06T00:20:41.950Z,70.96
2023-01-06T00:23:13.857Z,70.75
2023-01-06T00:25:52.436Z,71.26
2023-01-06T00:28:24.448Z,70.28
2023-01-06T00:30:56.682Z,70.06
2023-01-06T00:33:29.744Z,70.31
2023-01-06T00:36:02.068Z,70.30
2023-01-06T00:38:36.647Z,70.24
2023-01-06T00:41:31.402Z,69.87
2023-01-06T00:44:03.381Z,70.17
2023-01-06T00:46:35.853Z,70.29
2023-01-06T00:49:08.098Z,69.95
2023-01-06T00:51:41.118Z,70.15
2023-01-06T00:54:14.412Z,70.35
2023-01-06T00:56:48.430Z,70.27
2023-01-06T00:59:24.243Z,70.55
2023-01-06T01:01:58.017Z,70.04
2023-01-06T01:04:30.135Z,70.59
2023-01-06T01:07:02.169Z,70.44
2023-01-06T01:09:34.153Z,70.15
2023-01-06T01:12:15.065Z,70.98
2023-01-06T01:14:49.838Z,70.22
2023-01-06T01:17:32.356Z,70.80
2023-01-06T01:20:04.551Z,70.74
2023-01-06T01:22:36.544Z,70.46
2023-01-06T01:25:08.985Z,70.47
2023-01-06T01:27:40.985Z,70.22
2023-01-06T01:30:13.041Z,70.67
2023-01-06T01:32:44.990Z,70.38
2023-01-06T01:35:16.999Z,70.18
2023-01-06T01:37:49.083Z,69.90
2023-01-06T01:40:21.069Z,69.96
2023-01-06T01:42:53.178Z,70.01
2023-01-06T01:45:29.957Z,70.07
2023-01-06T01:48:14.325Z,70.36
2023-01-06T01:50:50.185Z,70.20
2023-01-06T01:53:27.088Z,70.03
2023-01-06T01:56:02.941Z,69.98
2023-01-06T01:58:54.430Z,70.21
2023-01-06T02:01:27.111Z,69.86
2023-01-06T02:04:01.528Z,69.89
2023-01-06T02:06:33.597Z,70.21
2023-01-06T02:09:37.329Z,69.94
2023-01-06T02:12:09.656Z,70.02
2023-01-06T02:14:41.559Z,70.03
2023-01-06T02:17:19.469Z,70.29
2023-01-06T02:20:22.576Z,70.37
2023-01-06T02:23:16.140Z,70.62
2023-01-06T02:26:10.742Z,70.71
2023-01-06T02:28:57.773Z,70.54
2023-01-06T02:31:52.289Z,70.34
2023-01-06T02:34:53.534Z,70.50
2023-01-06T02:37:48.400Z,70.58
2023-01-06T02:40:45.816Z,70.47
2023-01-06T02:43:38.206Z,70.01
2023-01-06T02:46:28.442Z,70.03
2023-01-06T02:49:27.384Z,70.02
2023-01-06T02:52:03.190Z,69.15
2023-01-06T02:54:54.320Z,70.53
2023-01-06T02:57:50.595Z,69.52
2023-01-06T03:00:36.234Z,69.56
2023-01-06T03:03:15.824Z,69.68
2023-01-06T03:05:52.439Z,70.00
2023-01-06T03:08:30.871Z,70.41
2023-01-06T03:11:03.621Z,70.35
2023-01-06T03:13:37.872Z,70.52
2023-01-06T03:16:10.101Z,70.08
2023-01-06T03:18:43.969Z,70.57
2023-01-06T03:21:20.210Z,70.32
2023-01-06T03:23:53.379Z,70.67
2023-01-06T03:26:26.783Z,70.40
2023-01-06T03:28:59.969Z,70.43
2023-01-06T03:32:04.049Z,70.63
2023-01-06T03:34:57.211Z,70.58
2023-01-06T03:37:36.885Z,70.65
2023-01-06T03:40:29.107Z,70.18
2023-01-06T03:43:13.670Z,70.35
2023-01-06T03:46:04.379Z,69.75
2023-01-06T03:49:18.982Z,69.88
2023-01-06T03:52:13.537Z,68.64
2023-01-06T03:54:58.177Z,68.54
2023-01-06T03:57:37.190Z,68.15
2023-01-06T04:00:21.251Z,68.32
2023-01-06T04:02:56.360Z,67.16
2023-01-06T04:05:29.471Z,67.30
2023-01-06T04:08:01.425Z,67.46
2023-01-06T04:10:33.413Z,66.99
2023-01-06T04:13:05.401Z,66.80
2023-01-06T04:15:37.387Z,66.96
2023-01-06T04:18:09.535Z,66.70
2023-01-06T04:20:41.540Z,66.98
2023-01-06T04:23:13.617Z,66.56
2023-01-06T04:25:45.568Z,66.11
2023-01-06T04:28:17.465Z,65.91
2023-01-06T04:30:49.384Z,65.63
2023-01-06T04:33:21.318Z,65.62
2023-01-06T04:35:53.282Z,66.25
2023-01-06T04:38:25.220Z,65.99
2023-01-06T04:40:57.192Z,66.05
2023-01-06T04:43:29.211Z,66.19
2023-01-06T04:46:01.404Z,65.94
2023-01-06T04:48:33.357Z,66.13
2023-01-06T04:51:08.143Z,66.15
2023-01-06T04:53:41.789Z,66.78
2023-01-06T04:56:14.282Z,66.04
2023-01-06T04:58:46.275Z,66.46
2023-01-06T05:01:18.289Z,66.67
2023-01-06T05:03:50.454Z,66.59
2023-01-06T05:06:22.455Z,66.58
2023-01-06T05:08:54.439Z,66.60
2023-01-06T05:11:27.157Z,66.70
2023-01-06T05:13:59.170Z,66.92
2023-01-06T05:16:33.689Z,66.56
2023-01-06T05:19:05.723Z,67.20
2023-01-06T05:21:37.679Z,66.88
2023-01-06T05:24:10.330Z,66.96
2023-01-06T05:26:42.263Z,66.71
2023-01-06T05:29:17.611Z,67.13
2023-01-06T05:31:49.642Z,66.89
2023-01-06T05:34:21.598Z,66.73
2023-01-06T05:36:53.643Z,66.29
2023-01-06T05:39:25.644Z,66.30
2023-01-06T05:41:57.624Z,66.16
2023-01-06T05:44:29.443Z,66.45
2023-01-06T05:47:02.032Z,66.23
2023-01-06T05:49:33.938Z,66.12
2023-01-06T05:52:05.884Z,66.20
2023-01-06T05:54:37.801Z,66.56
2023-01-06T05:57:11.290Z,67.00
2023-01-06T05:59:43.287Z,66.57
2023-01-06T06:02:15.330Z,66.64
2023-01-06T06:04:48.037Z,66.79
2023-01-06T06:07:19.984Z,66.94
2023-01-06T06:09:51.878Z,66.85
2023-01-06T06:12:23.830Z,66.46
2023-01-06T06:14:55.778Z,67.02
2023-01-06T06:17:27.849Z,66.81
2023-01-06T06:19:59.860Z,66.88
2023-01-06T06:22:32.001Z,66.89
2023-01-06T06:25:04.028Z,67.08
2023-01-06T06:27:36.015Z,67.40
2023-01-06T06:30:08.497Z,67.04
2023-01-06T06:32:40.437Z,67.22
2023-01-06T06:35:12.406Z,67.64
2023-01-06T06:37:44.261Z,67.67
2023-01-06T06:40:16.282Z,67.60
2023-01-06T06:42:52.081Z,67.27
2023-01-06T06:45:24.347Z,67.76
2023-01-06T06:47:56.387Z,66.57
2023-01-06T06:50:28.319Z,66.74
2023-01-06T06:53:00.247Z,67.05
2023-01-06T06:55:33.203Z,66.97
2023-01-06T06:58:05.165Z,67.06
2023-01-06T07:00:37.136Z,66.83
2023-01-06T07:03:09.101Z,66.74
2023-01-06T07:05:44.119Z,66.58
2023-01-06T07:08:16.339Z,66.51
2023-01-06T07:10:48.341Z,66.10
2023-01-06T07:13:20.300Z,65.60
2023-01-06T07:15:52.412Z,65.94
2023-01-06T07:18:24.447Z,66.21
2023-01-06T07:20:56.765Z,66.64
2023-01-06T07:23:28.955Z,66.42
2023-01-06T07:26:02.937Z,66.38
2023-01-06T07:28:34.962Z,66.64
2023-01-06T07:31:06.969Z,66.92
2023-01-06T07:33:38.976Z,67.21
2023-01-06T07:36:10.914Z,66.82
2023-01-06T07:38:42.823Z,66.83
2023-01-06T07:41:14.897Z,67.00
2023-01-06T07:43:46.815Z,66.62
2023-01-06T07:46:18.986Z,66.24
2023-01-06T07:48:50.919Z,65.64
2023-01-06T07:51:22.871Z,66.05
2023-01-06T07:53:54.906Z,65.82
2023-01-06T07:56:26.901Z,65.85
2023-01-06T07:58:58.839Z,65.04
2023-01-06T08:01:30.918Z,65.69
2023-01-06T08:04:02.925Z,64.97
2023-01-06T08:06:34.918Z,65.49
2023-01-06T08:09:06.892Z,66.48
2023-01-06T08:11:39.587Z,67.77
2023-01-06T08:14:12.767Z,67.39
2023-01-06T08:16:44.733Z,67.21
2023-01-06T08:19:16.774Z,67.09
2023-01-06T08:21:48.716Z,67.15
2023-01-06T08:24:20.667Z,66.84
2023-01-06T08:26:53.009Z,67.48
2023-01-06T08:29:26.051Z,67.29
2023-01-06T08:32:09.909Z,67.72
2023-01-06T08:34:42.500Z,67.53
2023-01-06T08:37:14.467Z,67.25
2023-01-06T08:39:46.405Z,67.33
2023-01-06T08:42:18.722Z,67.20
2023-01-06T08:44:50.689Z,67.24
2023-01-06T08:47:22.707Z,67.42
2023-01-06T08:49:54.544Z,67.09
2023-01-06T08:52:26.548Z,66.79
2023-01-06T08:55:00.242Z,66.86
2023-01-06T08:57:32.233Z,67.11
2023-01-06T09:00:06.756Z,66.86
2023-01-06T09:02:38.710Z,66.71
2023-01-06T09:05:10.714Z,67.26
2023-01-06T09:07:42.601Z,66.31
2023-01-06T09:10:14.535Z,65.84
2023-01-06T09:12:46.667Z,66.38
2023-01-06T09:15:18.877Z,66.08
2023-01-06T09:17:50.863Z,66.01
2023-01-06T09:20:22.866Z,66.23
2023-01-06T09:22:54.843Z,66.18
2023-01-06T09:25:26.798Z,66.41
2023-01-06T09:27:59.524Z,65.81
2023-01-06T09:30:31.467Z,65.54
2023-01-06T09:33:03.409Z,65.70
2023-01-06T09:35:35.345Z,65.29
2023-01-06T09:38:07.787Z,65.63
2023-01-06T09:41:16.806Z,65.81
2023-01-06T09:43:54.140Z,65.13
2023-01-06T09:46:30.876Z,65.35
2023-01-06T09:49:39.010Z,65.51
2023-01-06T09:52:35.250Z,65.06
2023-01-06T09:55:18.466Z,66.21
2023-01-06T09:58:01.359Z,66.00
2023-01-06T10:00:41.957Z,65.78
2023-01-06T10:03:21.399Z,65.35
2023-01-06T10:06:08.071Z,64.88
2023-01-06T10:09:07.552Z,65.87
2023-01-06T10:11:58.128Z,65.07
2023-01-06T10:14:53.225Z,64.75
2023-01-06T10:17:50.680Z,64.78
2023-01-06T10:20:53.717Z,64.74
2023-01-06T10:23:25.645Z,64.72
2023-01-06T10:26:13.407Z,64.74
2023-01-06T10:28:57.035Z,64.51
2023-01-06T10:31:35.524Z,64.48
2023-01-06T10:34:22.010Z,64.51
2023-01-06T10:37:12.860Z,65.06
2023-01-06T10:39:47.343Z,64.57
2023-01-06T10:42:57.765Z,64.38
2023-01-06T10:45:44.677Z,65.00
2023-01-06T10:48:25.020Z,65.67
2023-01-06T10:50:58.029Z,64.32
2023-01-06T10:53:30.584Z,65.10
2023-01-06T10:56:04.579Z,64.73
2023-01-06T10:58:50.980Z,64.04
2023-01-06T11:01:25.094Z,65.01
2023-01-06T11:04:12.447Z,64.86
2023-01-06T11:06:54.546Z,65.32
2023-01-06T11:09:45.565Z,65.73
2023-01-06T11:12:23.606Z,65.69
2023-01-06T11:15:01.105Z,65.96
2023-01-06T11:17:33.331Z,66.50
2023-01-06T11:20:09.552Z,65.92
2023-01-06T11:22:42.676Z,65.62
2023-01-06T11:25:20.816Z,65.57
2023-01-06T11:28:21.645Z,65.26
2023-01-06T11:30:58.900Z,65.23
2023-01-06T11:33:33.428Z,64.94
2023-01-06T11:36:13.816Z,65.40
2023-01-06T11:38:50.197Z,65.12
2023-01-06T11:41:29.430Z,64.62
2023-01-06T11:44:34.548Z,65.65
2023-01-06T11:47:16.625Z,64.64
2023-01-06T11:49:53.103Z,64.93
2023-01-06T11:52:27.487Z,63.77
2023-01-06T11:55:02.860Z,64.05
2023-01-06T11:57:59.087Z,64.90
2023-01-06T12:00:54.012Z,64.87
2023-01-06T12:03:42.742Z,64.40
2023-01-06T12:06:14.681Z,64.54
2023-01-06T12:09:17.990Z,64.68
2023-01-06T12:11:52.796Z,65.36
2023-01-06T12:14:30.002Z,64.15
2023-01-06T12:17:05.644Z,64.16
2023-01-06T12:19:43.561Z,61.89
2023-01-06T12:22:53.052Z,63.04
2023-01-06T12:25:39.821Z,62.86
2023-01-06T12:28:31.655Z,63.23
2023-01-06T12:31:24.658Z,62.55
2023-01-06T12:34:32.367Z,63.00
2023-01-06T12:37:07.453Z,63.38
2023-01-06T12:39:54.352Z,63.18
2023-01-06T12:42:44.714Z,62.74
2023-01-06T12:45:37.861Z,62.44
2023-01-06T12:48:18.601Z,62.85
2023-01-06T12:50:58.667Z,62.81
2023-01-06T12:53:40.331Z,63.49
2023-01-06T12:56:39.923Z,63.83
2023-01-06T12:59:19.769Z,63.43
2023-01-06T13:02:02.375Z,62.76
2023-01-06T13:05:09.408Z,63.76
2023-01-06T13:07:53.227Z,63.37
2023-01-06T13:10:30.993Z,63.53
2023-01-06T13:13:44.961Z,63.58
2023-01-06T13:16:26.184Z,63.28
2023-01-06T13:19:20.913Z,64.02
2023-01-06T13:21:56.659Z,63.70
2023-01-06T13:24:50.415Z,64.12
2023-01-06T13:27:37.671Z,64.25
2023-01-06T13:30:34.101Z,64.50
2023-01-06T13:33:29.415Z,64.79
2023-01-06T13:36:47.697Z,64.68
2023-01-06T13:39:53.221Z,65.00
2023-01-06T13:42:55.004Z,65.61
2023-01-06T13:45:34.598Z,65.19
2023-01-06T13:48:10.776Z,65.87
2023-01-06T13:50:43.717Z,65.81
2023-01-06T13:53:22.279Z,65.98
2023-01-06T13:56:30.520Z,66.69
2023-01-06T13:59:25.488Z,66.13
2023-01-06T14:02:00.056Z,66.42
2023-01-06T14:04:42.842Z,67.06
2023-01-06T14:07:15.529Z,66.97
2023-01-06T14:09:50.262Z,67.13
2023-01-06T14:12:24.443Z,66.96
2023-01-06T14:15:06.763Z,67.15
2023-01-06T14:17:44.606Z,66.94
2023-01-06T14:20:38.183Z,67.70
2023-01-06T14:23:18.910Z,67.32
2023-01-06T14:25:54.629Z,67.55
2023-01-06T14:28:33.792Z,67.58
2023-01-06T14:31:27.479Z,67.28
2023-01-06T14:34:02.791Z,67.38
2023-01-06T14:36:36.343Z,67.46
2023-01-06T14:39:18.489Z,67.24
2023-01-06T14:42:03.116Z,67.86
2023-01-06T14:44:44.679Z,68.01
2023-01-06T14:47:49.222Z,68.21
2023-01-06T14:50:38.298Z,67.75
2023-01-06T14:53:32.844Z,67.95
2023-01-06T14:56:07.229Z,67.75
2023-01-06T14:58:39.219Z,67.92
2023-01-06T15:01:30.719Z,68.02
2023-01-06T15:04:04.740Z,68.17
2023-01-06T15:06:36.705Z,67.99
2023-01-06T15:09:19.779Z,67.83
2023-01-06T15:11:51.982Z,67.90
2023-01-06T15:14:29.973Z,68.02
2023-01-06T15:17:05.666Z,68.41
2023-01-06T15:19:37.923Z,68.22
2023-01-06T15:22:11.220Z,68.45
2023-01-06T15:24:43.641Z,68.42
2023-01-06T15:27:18.136Z,68.34
2023-01-06T15:29:55.083Z,68.51
2023-01-06T15:32:28.012Z,68.48
2023-01-06T15:35:00.460Z,68.41
2023-01-06T15:37:35.257Z,68.62
2023-01-06T15:40:08.448Z,68.64
2023-01-06T15:42:41.137Z,68.74
2023-01-06T15:45:29.204Z,68.81
2023-01-06T15:48:09.644Z,68.69
2023-01-06T15:50:41.863Z,68.84
2023-01-06T15:53:25.049Z,69.18
2023-01-06T15:55:57.014Z,69.05
2023-01-06T15:58:39.942Z,69.66
2023-01-06T16:01:17.473Z,69.34
2023-01-06T16:04:02.319Z,70.02
2023-01-06T16:06:39.369Z,69.05
2023-01-06T16:09:20.165Z,69.15
2023-01-06T16:12:07.263Z,69.20
2023-01-06T16:14:47.387Z,69.02
2023-01-06T16:17:41.168Z,68.97
2023-01-06T16:20:24.746Z,69.09
2023-01-06T16:22:56.961Z,69.07
2023-01-06T16:25:32.630Z,69.08
2023-01-06T16:28:05.885Z,68.80
2023-01-06T16:30:38.504Z,69.07
2023-01-06T16:33:35.257Z,68.97
2023-01-06T16:36:25.679Z,69.40
2023-01-06T16:38:57.667Z,69.19
2023-01-06T16:41:29.762Z,69.31
2023-01-06T16:44:01.814Z,69.38
2023-01-06T16:46:33.836Z,69.38
2023-01-06T16:49:10.774Z,69.32
2023-01-06T16:51:45.773Z,69.39
2023-01-06T16:54:19.063Z,69.39
2023-01-06T16:56:52.597Z,69.41
2023-01-06T16:59:36.368Z,69.58
2023-01-06T17:02:15.053Z,69.45
2023-01-06T17:04:47.674Z,69.32
2023-01-06T17:07:19.795Z,69.32
2023-01-06T17:09:51.798Z,69.35
2023-01-06T17:12:53.095Z,69.57
2023-01-06T17:15:25.289Z,69.84
2023-01-06T17:17:57.442Z,70.12
2023-01-06T17:20:32.124Z,70.71
2023-01-06T17:23:05.614Z,70.75
2023-01-06T17:25:37.574Z,70.98
2023-01-06T17:28:22.607Z,71.64
2023-01-06T17:30:54.608Z,72.07
2023-01-06T17:33:29.083Z,72.32
2023-01-06T17:36:03.257Z,72.44
2023-01-06T17:38:35.348Z,73.29
2023-01-06T17:41:10.598Z,73.31
2023-01-06T17:43:42.695Z,73.48
2023-01-06T17:46:37.036Z,73.70
2023-01-06T17:49:31.059Z,73.75
2023-01-06T17:52:15.323Z,74.04
2023-01-06T17:55:16.520Z,73.92
2023-01-06T17:57:48.870Z,74.22
2023-01-06T18:00:24.824Z,74.04
2023-01-06T18:03:01.420Z,73.78
2023-01-06T18:05:33.937Z,73.83
2023-01-06T18:08:05.932Z,74.75
2023-01-06T18:10:43.889Z,74.43
2023-01-06T18:13:20.596Z,74.30
2023-01-06T18:15:56.846Z,74.11
2023-01-06T18:18:38.831Z,74.29
2023-01-06T18:21:34.994Z,74.47
2023-01-06T18:24:22.682Z,74.67
2023-01-06T18:27:13.464Z,74.48
2023-01-06T18:29:46.007Z,74.88
2023-01-06T18:32:20.756Z,74.87
2023-01-06T18:34:57.689Z,75.07
2023-01-06T18:37:35.779Z,74.87
2023-01-06T18:40:32.310Z,75.04
2023-01-06T18:43:24.321Z,75.26
2023-01-06T18:46:01.334Z,75.13
2023-01-06T18:48:34.588Z,75.25
2023-01-06T18:51:23.720Z,75.07
2023-01-06T18:53:57.653Z,75.30
2023-01-06T18:56:29.703Z,75.94
2023-01-06T18:59:01.651Z,76.04
2023-01-06T19:01:46.708Z,75.98
2023-01-06T19:04:22.657Z,75.65
2023-01-06T19:06:57.569Z,75.87
2023-01-06T19:09:40.593Z,75.97
2023-01-06T19:12:32.911Z,75.94
2023-01-06T19:15:26.488Z,76.30
2023-01-06T19:17:58.389Z,76.11
2023-01-06T19:20:35.396Z,76.52
2023-01-06T19:23:24.827Z,76.47
2023-01-06T19:26:17.493Z,76.32
2023-01-06T19:28:57.333Z,76.22
2023-01-06T19:31:30.927Z,76.33
2023-01-06T19:34:04.451Z,77.46
2023-01-06T19:36:42.269Z,77.29
2023-01-06T19:39:25.582Z,76.73
2023-01-06T19:42:23.989Z,76.67
2023-01-06T19:45:00.956Z,76.86
2023-01-06T19:47:39.416Z,76.47
2023-01-06T19:50:23.383Z,77.00
2023-01-06T19:53:00.420Z,76.89
2023-01-06T19:55:33.609Z,76.92
2023-01-06T19:58:15.914Z,77.23
2023-01-06T20:00:52.778Z,77.17
2023-01-06T20:03:36.686Z,77.06
2023-01-06T20:06:08.667Z,77.29
2023-01-06T20:08:41.816Z,76.94
2023-01-06T20:11:13.802Z,77.35
2023-01-06T20:13:45.759Z,77.09
2023-01-06T20:16:17.832Z,77.08
2023-01-06T20:18:50.850Z,77.27
2023-01-06T20:21:22.825Z,77.05
2023-01-06T20:23:54.978Z,77.21
2023-01-06T20:26:26.960Z,76.89
2023-01-06T20:28:58.835Z,77.41
2023-01-06T20:31:31.612Z,77.19
2023-01-06T20:34:03.842Z,77.94
2023-01-06T20:36:35.782Z,77.27
2023-01-06T20:39:07.712Z,77.49
2023-01-06T20:41:39.671Z,77.26
2023-01-06T20:44:13.451Z,77.17
2023-01-06T20:46:45.448Z,77.42
2023-01-06T20:49:20.774Z,77.16
2023-01-06T20:51:53.032Z,77.48
2023-01-06T20:54:25.059Z,77.34
2023-01-06T20:56:57.339Z,77.69
2023-01-06T20:59:29.290Z,77.29
2023-01-06T21:02:01.544Z,77.70
2023-01-06T21:04:34.452Z,77.45
2023-01-06T21:07:07.235Z,77.12
2023-01-06T21:09:39.158Z,77.28
2023-01-06T21:12:11.100Z,77.26
2023-01-06T21:14:43.120Z,77.18
2023-01-06T21:17:15.080Z,77.14
2023-01-06T21:19:48.784Z,77.09
2023-01-06T21:22:20.695Z,77.32
2023-01-06T21:24:52.930Z,77.20
2023-01-06T21:27:24.911Z,76.88
2023-01-06T21:29:56.865Z,76.83
2023-01-06T21:32:28.877Z,77.05
2023-01-06T21:35:00.852Z,77.04
2023-01-06T21:37:32.851Z,77.16
2023-01-06T21:40:08.827Z,77.21
2023-01-06T21:42:59.836Z,76.95
2023-01-06T21:45:31.810Z,77.34
2023-01-06T21:48:04.551Z,77.45
2023-01-06T21:50:44.494Z,76.28
2023-01-06T21:53:16.636Z,76.04
2023-01-06T21:55:48.566Z,75.97
2023-01-06T21:58:21.697Z,75.91
2023-01-06T22:00:53.718Z,76.21
2023-01-06T22:03:25.720Z,76.71
2023-01-06T22:05:58.578Z,76.86
2023-01-06T22:08:31.849Z,76.77
2023-01-06T22:11:04.731Z,76.86
2023-01-06T22:13:36.733Z,77.11
2023-01-06T22:16:09.496Z,76.87
2023-01-06T22:18:41.753Z,76.88
2023-01-06T22:21:13.764Z,76.88
2023-01-06T22:23:45.765Z,76.72
2023-01-06T22:26:17.711Z,76.83
2023-01-06T22:28:50.037Z,77.02
2023-01-06T22:31:23.925Z,76.96
2023-01-06T22:33:55.956Z,77.11
2023-01-06T22:36:28.136Z,77.64
2023-01-06T22:39:00.102Z,77.59
2023-01-06T22:41:32.048Z,77.43
2023-01-06T22:44:04.064Z,77.26
2023-01-06T22:46:36.033Z,77.34
2023-01-06T22:49:08.039Z,77.28
2023-01-06T22:51:40.026Z,77.63
2023-01-06T22:54:12.047Z,77.13
2023-01-06T22:56:44.020Z,77.51
2023-01-06T22:59:15.990Z,77.50
2023-01-06T23:01:48.032Z,77.73
2023-01-06T23:04:20.088Z,77.73
2023-01-06T23:06:52.071Z,77.46
2023-01-06T23:09:24.039Z,77.42
2023-01-06T23:11:56.023Z,77.29
2023-01-06T23:14:27.990Z,77.79
2023-01-06T23:16:59.988Z,77.79
2023-01-06T23:19:31.860Z,77.83
2023-01-06T23:22:03.795Z,78.06
2023-01-06T23:24:35.719Z,78.11
2023-01-06T23:27:07.676Z,77.91
2023-01-06T23:29:39.708Z,77.66
2023-01-06T23:32:11.617Z,77.33
2023-01-06T23:34:43.550Z,77.81
2023-01-06T23:37:15.560Z,77.81
2023-01-06T23:39:48.312Z,77.91
2023-01-06T23:42:20.291Z,77.80
2023-01-06T23:44:52.234Z,77.05
2023-01-06T23:47:24.243Z,77.57
2023-01-06T23:49:56.168Z,78.11
2023-01-06T23:52:28.120Z,77.70
2023-01-06T23:55:00.050Z,77.68
2023-01-06T23:57:31.994Z,77.99
